Messwerte Alexandria Borg El Arab

Temperatur

Temperatur
°C
1573707600 7.00 7.00 18
1573711200 8.00 8.00 19
1573714800 9.00 9.00 23
1573718400 10.00 10.00 25
1573722000 11.00 11.00
1573725600 12.00 12.00 27
1573729200 13.00 13.00 28
1573732800 14.00 14.00 27
1573736400 15.00 15.00 27
1573740000 16.00 16.00 25
1573743600 17.00 17.00 24
1573747200 18.00 18.00 23
1573750800 19.00 19.00 22
1573754400 20.00 20.00 22
1573758000 21.00 21.00 22
1573761600 22.00 22.00 21
1573765200 23.00 23.00
1573768800 0.00 0.00 21
1573772400 1.00 1.00 20
1573776000 2.00 2.00 20
1573779600 3.00 3.00 19
1573783200 4.00 4.00
1573786800 5.00 5.00 18
1573790400 6.00 6.00 17

Aktuellste Messwerte

Wettercharakter
Wetter: freundlich
Temperatur
17 °C
Feuchtigkeit
80 %
Wind
5 km/hWindrichtung: Südwest
Luftdruck
1016 hPa
Messzeit: 15. November 2019, 6.00Datenquelle: METAR

Weitere Messstationen in der Nähe

Messstation Temperatur Entfernung
Alexandria 22 °C 39 km
Kairo 20 °C 185 km
Mersa Matruh 15 °C 240 km
Port Said 21 °C 244 km
Ismalia - 246 km
Asyut 15 °C 449 km
El Tor 21 °C 482 km

Wind

Windrichtung Böen Mittelwind
° km/h km/h
1573707600 7.00 6.00 - 7.00 150° 15
1573711200 8.00 7.00 - 8.00 170° 15
1573714800 9.00 8.00 - 9.00 170° 15
1573718400 10.00 9.00 - 10.00 190° 25
1573722000 11.00 10.00 - 11.00
1573725600 12.00 11.00 - 12.00 240° 25
1573729200 13.00 12.00 - 13.00 260° 20
1573732800 14.00 13.00 - 14.00 240° 30
1573736400 15.00 14.00 - 15.00 260° 30
1573740000 16.00 15.00 - 16.00 280° 30
1573743600 17.00 16.00 - 17.00 290° 30
1573747200 18.00 17.00 - 18.00 300° 25
1573750800 19.00 18.00 - 19.00 310° 20
1573754400 20.00 19.00 - 20.00 310° 20
1573758000 21.00 20.00 - 21.00 290° 20
1573761600 22.00 21.00 - 22.00 290° 20
1573765200 23.00 22.00 - 23.00
1573768800 0.00 23.00 - 0.00 300° 10
1573772400 1.00 0.00 - 1.00 280° 10
1573776000 2.00 1.00 - 2.00 0
1573779600 3.00 2.00 - 3.00 250° 5
1573783200 4.00 3.00 - 4.00
1573786800 5.00 4.00 - 5.00 0
1573790400 6.00 5.00 - 6.00 230° 5

Ihre Wetterstation

Fehlt Ihre Wetterstation auf unserem Portal?

Schreiben Sie an network@meteonews.ch

Klima

Wann ist es am wärmsten? Wann regnet es am wenigsten? Unsere Klimadaten geben Auskunft.